sensor_id;sensor_type;location;lat;lon;timestamp;P1;durP1;ratioP1;P2;durP2;ratioP2
19225;SDS011;9747;48.536;12.522;2024-03-22T00:00:34;2.33;;;2.22;;
19225;SDS011;9747;48.536;12.522;2024-03-22T00:03:00;2.08;;;1.98;;
19225;SDS011;9747;48.536;12.522;2024-03-22T00:05:28;2.00;;;1.90;;
19225;SDS011;9747;48.536;12.522;2024-03-22T00:07:54;2.28;;;2.17;;
19225;SDS011;9747;48.536;12.522;2024-03-22T00:10:23;2.25;;;2.15;;
19225;SDS011;9747;48.536;12.522;2024-03-22T00:12:50;2.05;;;1.95;;
19225;SDS011;9747;48.536;12.522;2024-03-22T00:15:18;2.30;;;2.10;;
19225;SDS011;9747;48.536;12.522;2024-03-22T00:17:44;2.30;;;2.10;;
19225;SDS011;9747;48.536;12.522;2024-03-22T00:20:11;2.28;;;2.13;;
19225;SDS011;9747;48.536;12.522;2024-03-22T00:22:38;2.08;;;1.98;;
19225;SDS011;9747;48.536;12.522;2024-03-22T00:25:06;2.28;;;2.17;;
19225;SDS011;9747;48.536;12.522;2024-03-22T00:27:34;2.30;;;2.15;;
19225;SDS011;9747;48.536;12.522;2024-03-22T00:30:01;2.13;;;2.03;;
19225;SDS011;9747;48.536;12.522;2024-03-22T00:32:29;2.10;;;2.00;;
19225;SDS011;9747;48.536;12.522;2024-03-22T00:34:56;2.40;;;2.20;;
19225;SDS011;9747;48.536;12.522;2024-03-22T00:37:23;2.20;;;2.10;;
19225;SDS011;9747;48.536;12.522;2024-03-22T00:39:50;2.38;;;2.10;;
19225;SDS011;9747;48.536;12.522;2024-03-22T00:42:17;2.10;;;2.00;;
19225;SDS011;9747;48.536;12.522;2024-03-22T00:44:46;2.22;;;2.13;;
19225;SDS011;9747;48.536;12.522;2024-03-22T00:47:12;2.20;;;2.10;;
19225;SDS011;9747;48.536;12.522;2024-03-22T00:49:39;2.15;;;2.05;;
19225;SDS011;9747;48.536;12.522;2024-03-22T00:52:06;1.90;;;1.80;;
19225;SDS011;9747;48.536;12.522;2024-03-22T00:54:34;2.20;;;2.10;;
19225;SDS011;9747;48.536;12.522;2024-03-22T00:57:01;2.30;;;2.20;;
19225;SDS011;9747;48.536;12.522;2024-03-22T00:59:28;2.38;;;2.00;;
19225;SDS011;9747;48.536;12.522;2024-03-22T01:01:56;2.17;;;2.08;;
19225;SDS011;9747;48.536;12.522;2024-03-22T01:04:24;2.35;;;2.10;;
19225;SDS011;9747;48.536;12.522;2024-03-22T01:06:50;2.45;;;2.35;;
19225;SDS011;9747;48.536;12.522;2024-03-22T01:09:17;2.42;;;2.20;;
19225;SDS011;9747;48.536;12.522;2024-03-22T01:11:44;2.30;;;2.20;;
19225;SDS011;9747;48.536;12.522;2024-03-22T01:14:12;2.30;;;2.20;;
19225;SDS011;9747;48.536;12.522;2024-03-22T01:16:38;2.20;;;2.10;;
19225;SDS011;9747;48.536;12.522;2024-03-22T01:19:08;2.83;;;2.55;;
19225;SDS011;9747;48.536;12.522;2024-03-22T01:21:35;2.38;;;2.17;;
19225;SDS011;9747;48.536;12.522;2024-03-22T01:24:02;2.50;;;2.33;;
19225;SDS011;9747;48.536;12.522;2024-03-22T01:26:29;2.22;;;2.13;;
19225;SDS011;9747;48.536;12.522;2024-03-22T01:28:56;2.40;;;2.20;;
19225;SDS011;9747;48.536;12.522;2024-03-22T01:31:22;2.50;;;2.40;;
19225;SDS011;9747;48.536;12.522;2024-03-22T01:33:50;2.45;;;2.22;;
19225;SDS011;9747;48.536;12.522;2024-03-22T01:36:17;2.28;;;2.17;;
19225;SDS011;9747;48.536;12.522;2024-03-22T01:38:45;2.35;;;2.20;;
19225;SDS011;9747;48.536;12.522;2024-03-22T01:41:11;2.28;;;2.13;;
19225;SDS011;9747;48.536;12.522;2024-03-22T01:43:39;2.30;;;2.20;;
19225;SDS011;9747;48.536;12.522;2024-03-22T01:46:06;2.00;;;1.90;;
19225;SDS011;9747;48.536;12.522;2024-03-22T01:48:34;2.40;;;2.20;;
19225;SDS011;9747;48.536;12.522;2024-03-22T01:51:01;2.40;;;2.30;;
19225;SDS011;9747;48.536;12.522;2024-03-22T01:53:31;2.10;;;2.00;;
19225;SDS011;9747;48.536;12.522;2024-03-22T01:55:58;2.22;;;2.08;;
19225;SDS011;9747;48.536;12.522;2024-03-22T01:58:26;2.53;;;2.33;;
19225;SDS011;9747;48.536;12.522;2024-03-22T02:00:53;2.50;;;2.40;;
19225;SDS011;9747;48.536;12.522;2024-03-22T02:03:21;2.65;;;2.55;;
19225;SDS011;9747;48.536;12.522;2024-03-22T02:05:47;2.53;;;2.42;;
19225;SDS011;9747;48.536;12.522;2024-03-22T02:08:15;2.30;;;2.20;;
19225;SDS011;9747;48.536;12.522;2024-03-22T02:10:43;2.80;;;2.67;;
19225;SDS011;9747;48.536;12.522;2024-03-22T02:13:10;2.60;;;2.50;;
19225;SDS011;9747;48.536;12.522;2024-03-22T02:15:37;2.60;;;2.50;;
19225;SDS011;9747;48.536;12.522;2024-03-22T02:18:04;2.53;;;2.42;;
19225;SDS011;9747;48.536;12.522;2024-03-22T02:20:31;2.45;;;2.33;;
19225;SDS011;9747;48.536;12.522;2024-03-22T02:22:58;2.92;;;2.72;;
19225;SDS011;9747;48.536;12.522;2024-03-22T02:25:26;2.40;;;2.20;;
19225;SDS011;9747;48.536;12.522;2024-03-22T02:27:54;3.15;;;2.95;;
19225;SDS011;9747;48.536;12.522;2024-03-22T02:30:20;3.05;;;2.80;;
19225;SDS011;9747;48.536;12.522;2024-03-22T02:32:48;2.90;;;2.70;;
19225;SDS011;9747;48.536;12.522;2024-03-22T02:35:14;2.72;;;2.53;;
19225;SDS011;9747;48.536;12.522;2024-03-22T02:37:42;3.00;;;2.80;;
19225;SDS011;9747;48.536;12.522;2024-03-22T02:40:09;2.80;;;2.60;;
19225;SDS011;9747;48.536;12.522;2024-03-22T02:42:39;2.90;;;2.70;;
19225;SDS011;9747;48.536;12.522;2024-03-22T02:45:05;3.05;;;2.85;;
19225;SDS011;9747;48.536;12.522;2024-03-22T02:47:34;3.13;;;2.88;;
19225;SDS011;9747;48.536;12.522;2024-03-22T02:50:00;2.90;;;2.70;;
19225;SDS011;9747;48.536;12.522;2024-03-22T02:52:28;2.90;;;2.70;;
19225;SDS011;9747;48.536;12.522;2024-03-22T02:54:54;2.70;;;2.50;;
19225;SDS011;9747;48.536;12.522;2024-03-22T02:57:22;2.92;;;2.72;;
19225;SDS011;9747;48.536;12.522;2024-03-22T02:59:50;2.80;;;2.60;;
19225;SDS011;9747;48.536;12.522;2024-03-22T03:02:17;2.80;;;2.60;;
19225;SDS011;9747;48.536;12.522;2024-03-22T03:04:43;2.55;;;2.35;;
19225;SDS011;9747;48.536;12.522;2024-03-22T03:07:11;2.95;;;2.75;;
19225;SDS011;9747;48.536;12.522;2024-03-22T03:09:37;2.60;;;2.40;;
19225;SDS011;9747;48.536;12.522;2024-03-22T03:12:05;2.50;;;2.40;;
19225;SDS011;9747;48.536;12.522;2024-03-22T03:14:32;2.40;;;2.30;;
19225;SDS011;9747;48.536;12.522;2024-03-22T03:17:00;2.50;;;2.30;;
19225;SDS011;9747;48.536;12.522;2024-03-22T03:19:27;2.60;;;2.50;;
19225;SDS011;9747;48.536;12.522;2024-03-22T03:21:54;2.63;;;2.53;;
19225;SDS011;9747;48.536;12.522;2024-03-22T03:24:21;2.70;;;2.47;;
19225;SDS011;9747;48.536;12.522;2024-03-22T03:26:48;2.80;;;2.60;;
19225;SDS011;9747;48.536;12.522;2024-03-22T03:29:15;2.95;;;2.60;;
19225;SDS011;9747;48.536;12.522;2024-03-22T03:31:42;2.85;;;2.65;;
19225;SDS011;9747;48.536;12.522;2024-03-22T03:34:10;2.22;;;2.13;;
19225;SDS011;9747;48.536;12.522;2024-03-22T03:36:38;2.95;;;2.75;;
19225;SDS011;9747;48.536;12.522;2024-03-22T03:39:05;2.60;;;2.50;;
19225;SDS011;9747;48.536;12.522;2024-03-22T03:41:33;2.88;;;2.70;;
19225;SDS011;9747;48.536;12.522;2024-03-22T03:43:59;2.55;;;2.33;;
19225;SDS011;9747;48.536;12.522;2024-03-22T03:46:26;2.92;;;2.72;;
19225;SDS011;9747;48.536;12.522;2024-03-22T03:48:53;2.70;;;2.50;;
19225;SDS011;9747;48.536;12.522;2024-03-22T03:51:22;2.67;;;2.47;;
19225;SDS011;9747;48.536;12.522;2024-03-22T03:53:49;2.70;;;2.47;;
19225;SDS011;9747;48.536;12.522;2024-03-22T03:56:16;2.65;;;2.55;;
19225;SDS011;9747;48.536;12.522;2024-03-22T03:58:45;2.95;;;2.75;;
19225;SDS011;9747;48.536;12.522;2024-03-22T04:01:12;2.72;;;2.53;;
19225;SDS011;9747;48.536;12.522;2024-03-22T04:03:39;2.75;;;2.55;;
19225;SDS011;9747;48.536;12.522;2024-03-22T04:06:06;2.35;;;2.20;;
19225;SDS011;9747;48.536;12.522;2024-03-22T04:08:34;2.88;;;2.67;;
19225;SDS011;9747;48.536;12.522;2024-03-22T04:11:02;2.40;;;2.30;;
19225;SDS011;9747;48.536;12.522;2024-03-22T04:13:29;2.63;;;2.47;;
19225;SDS011;9747;48.536;12.522;2024-03-22T04:15:58;2.40;;;2.28;;
19225;SDS011;9747;48.536;12.522;2024-03-22T04:18:25;2.72;;;2.53;;
19225;SDS011;9747;48.536;12.522;2024-03-22T04:20:53;2.80;;;2.60;;
19225;SDS011;9747;48.536;12.522;2024-03-22T04:23:19;2.75;;;2.63;;
19225;SDS011;9747;48.536;12.522;2024-03-22T04:25:52;2.60;;;2.50;;
19225;SDS011;9747;48.536;12.522;2024-03-22T04:28:20;2.53;;;2.42;;
19225;SDS011;9747;48.536;12.522;2024-03-22T04:30:54;2.15;;;2.05;;
19225;SDS011;9747;48.536;12.522;2024-03-22T04:33:22;2.58;;;2.47;;
19225;SDS011;9747;48.536;12.522;2024-03-22T04:35:50;2.38;;;2.28;;
19225;SDS011;9747;48.536;12.522;2024-03-22T04:38:16;2.60;;;2.28;;
19225;SDS011;9747;48.536;12.522;2024-03-22T04:40:44;2.50;;;2.30;;
19225;SDS011;9747;48.536;12.522;2024-03-22T04:43:13;2.60;;;2.40;;
19225;SDS011;9747;48.536;12.522;2024-03-22T04:45:41;2.60;;;2.40;;
19225;SDS011;9747;48.536;12.522;2024-03-22T04:48:09;2.67;;;2.47;;
19225;SDS011;9747;48.536;12.522;2024-03-22T04:50:37;2.58;;;2.38;;
19225;SDS011;9747;48.536;12.522;2024-03-22T04:53:04;2.80;;;2.60;;
19225;SDS011;9747;48.536;12.522;2024-03-22T04:55:31;2.33;;;2.22;;
19225;SDS011;9747;48.536;12.522;2024-03-22T04:57:59;2.55;;;2.42;;
19225;SDS011;9747;48.536;12.522;2024-03-22T05:00:27;2.40;;;2.22;;
19225;SDS011;9747;48.536;12.522;2024-03-22T05:02:54;2.47;;;2.30;;
19225;SDS011;9747;48.536;12.522;2024-03-22T05:05:21;2.60;;;2.50;;
19225;SDS011;9747;48.536;12.522;2024-03-22T05:07:48;2.60;;;2.50;;
19225;SDS011;9747;48.536;12.522;2024-03-22T05:10:15;2.50;;;2.30;;
19225;SDS011;9747;48.536;12.522;2024-03-22T05:12:42;2.58;;;2.40;;
19225;SDS011;9747;48.536;12.522;2024-03-22T05:15:09;2.22;;;2.10;;
19225;SDS011;9747;48.536;12.522;2024-03-22T05:17:38;3.25;;;2.67;;
19225;SDS011;9747;48.536;12.522;2024-03-22T05:20:06;2.60;;;2.40;;
19225;SDS011;9747;48.536;12.522;2024-03-22T05:22:36;2.47;;;2.28;;
19225;SDS011;9747;48.536;12.522;2024-03-22T05:25:03;2.50;;;2.30;;
19225;SDS011;9747;48.536;12.522;2024-03-22T05:27:31;2.60;;;2.40;;
19225;SDS011;9747;48.536;12.522;2024-03-22T05:29:58;2.88;;;2.50;;
19225;SDS011;9747;48.536;12.522;2024-03-22T05:32:26;2.58;;;2.38;;
19225;SDS011;9747;48.536;12.522;2024-03-22T05:34:53;2.50;;;2.30;;
19225;SDS011;9747;48.536;12.522;2024-03-22T05:37:21;3.28;;;2.50;;
19225;SDS011;9747;48.536;12.522;2024-03-22T05:39:48;2.72;;;2.53;;
19225;SDS011;9747;48.536;12.522;2024-03-22T05:42:15;2.50;;;2.30;;
19225;SDS011;9747;48.536;12.522;2024-03-22T05:44:42;2.95;;;2.22;;
19225;SDS011;9747;48.536;12.522;2024-03-22T05:47:10;2.80;;;2.60;;
19225;SDS011;9747;48.536;12.522;2024-03-22T05:49:36;2.80;;;2.60;;
19225;SDS011;9747;48.536;12.522;2024-03-22T05:52:06;2.50;;;2.40;;
19225;SDS011;9747;48.536;12.522;2024-03-22T05:54:32;2.72;;;2.53;;
19225;SDS011;9747;48.536;12.522;2024-03-22T05:57:00;2.55;;;2.35;;
19225;SDS011;9747;48.536;12.522;2024-03-22T05:59:28;2.72;;;2.53;;
19225;SDS011;9747;48.536;12.522;2024-03-22T06:01:55;3.80;;;2.60;;
19225;SDS011;9747;48.536;12.522;2024-03-22T06:04:21;2.53;;;2.42;;
19225;SDS011;9747;48.536;12.522;2024-03-22T06:06:49;2.75;;;2.55;;
19225;SDS011;9747;48.536;12.522;2024-03-22T06:09:17;2.53;;;2.33;;
19225;SDS011;9747;48.536;12.522;2024-03-22T06:11:49;3.85;;;2.45;;
19225;SDS011;9747;48.536;12.522;2024-03-22T06:14:15;3.25;;;2.95;;
19225;SDS011;9747;48.536;12.522;2024-03-22T06:16:43;3.20;;;3.00;;
19225;SDS011;9747;48.536;12.522;2024-03-22T06:19:10;2.95;;;2.58;;
19225;SDS011;9747;48.536;12.522;2024-03-22T06:21:37;2.90;;;2.72;;
19225;SDS011;9747;48.536;12.522;2024-03-22T06:24:04;3.75;;;3.10;;
19225;SDS011;9747;48.536;12.522;2024-03-22T06:26:33;2.50;;;2.30;;
19225;SDS011;9747;48.536;12.522;2024-03-22T06:29:00;2.83;;;2.60;;
19225;SDS011;9747;48.536;12.522;2024-03-22T06:31:28;3.17;;;2.90;;
19225;SDS011;9747;48.536;12.522;2024-03-22T06:33:54;3.83;;;2.80;;
19225;SDS011;9747;48.536;12.522;2024-03-22T06:36:27;2.72;;;2.53;;
19225;SDS011;9747;48.536;12.522;2024-03-22T06:38:54;2.85;;;2.50;;
19225;SDS011;9747;48.536;12.522;2024-03-22T06:41:22;4.00;;;3.22;;
19225;SDS011;9747;48.536;12.522;2024-03-22T06:43:50;3.83;;;2.78;;
19225;SDS011;9747;48.536;12.522;2024-03-22T06:46:17;3.03;;;2.78;;
19225;SDS011;9747;48.536;12.522;2024-03-22T06:48:44;3.30;;;3.00;;
19225;SDS011;9747;48.536;12.522;2024-03-22T06:51:12;3.05;;;2.75;;
19225;SDS011;9747;48.536;12.522;2024-03-22T06:53:40;3.08;;;2.78;;
19225;SDS011;9747;48.536;12.522;2024-03-22T06:56:08;3.15;;;2.85;;
19225;SDS011;9747;48.536;12.522;2024-03-22T06:58:36;4.25;;;2.78;;
19225;SDS011;9747;48.536;12.522;2024-03-22T07:01:05;2.92;;;2.70;;
19225;SDS011;9747;48.536;12.522;2024-03-22T07:03:32;3.20;;;2.90;;
19225;SDS011;9747;48.536;12.522;2024-03-22T07:05:59;3.13;;;2.88;;
19225;SDS011;9747;48.536;12.522;2024-03-22T07:08:26;3.22;;;2.88;;
19225;SDS011;9747;48.536;12.522;2024-03-22T07:10:53;3.60;;;2.78;;
19225;SDS011;9747;48.536;12.522;2024-03-22T07:13:20;2.78;;;2.58;;
19225;SDS011;9747;48.536;12.522;2024-03-22T07:15:48;4.18;;;2.80;;
19225;SDS011;9747;48.536;12.522;2024-03-22T07:18:15;3.20;;;2.88;;
19225;SDS011;9747;48.536;12.522;2024-03-22T07:20:44;3.63;;;2.60;;
19225;SDS011;9747;48.536;12.522;2024-03-22T07:23:11;2.63;;;2.38;;
19225;SDS011;9747;48.536;12.522;2024-03-22T07:25:38;3.63;;;2.75;;
19225;SDS011;9747;48.536;12.522;2024-03-22T07:28:07;2.83;;;2.42;;
19225;SDS011;9747;48.536;12.522;2024-03-22T07:30:35;4.32;;;2.42;;
19225;SDS011;9747;48.536;12.522;2024-03-22T07:33:02;3.28;;;2.60;;
19225;SDS011;9747;48.536;12.522;2024-03-22T07:35:31;3.25;;;2.50;;
19225;SDS011;9747;48.536;12.522;2024-03-22T07:37:59;3.55;;;2.55;;
19225;SDS011;9747;48.536;12.522;2024-03-22T07:40:27;3.30;;;2.40;;
19225;SDS011;9747;48.536;12.522;2024-03-22T07:42:54;2.53;;;2.33;;
19225;SDS011;9747;48.536;12.522;2024-03-22T07:45:21;3.17;;;2.88;;
19225;SDS011;9747;48.536;12.522;2024-03-22T07:47:47;2.38;;;2.17;;
19225;SDS011;9747;48.536;12.522;2024-03-22T07:50:15;3.58;;;2.50;;
19225;SDS011;9747;48.536;12.522;2024-03-22T07:52:43;4.70;;;2.50;;
19225;SDS011;9747;48.536;12.522;2024-03-22T07:55:11;2.88;;;2.33;;
19225;SDS011;9747;48.536;12.522;2024-03-22T07:57:37;2.63;;;2.20;;
19225;SDS011;9747;48.536;12.522;2024-03-22T08:00:05;2.38;;;2.28;;
19225;SDS011;9747;48.536;12.522;2024-03-22T08:02:37;2.50;;;2.30;;
19225;SDS011;9747;48.536;12.522;2024-03-22T08:05:04;2.80;;;2.50;;
19225;SDS011;9747;48.536;12.522;2024-03-22T08:07:32;4.45;;;2.42;;
19225;SDS011;9747;48.536;12.522;2024-03-22T08:10:01;2.33;;;2.15;;
19225;SDS011;9747;48.536;12.522;2024-03-22T08:12:29;2.67;;;2.47;;
19225;SDS011;9747;48.536;12.522;2024-03-22T08:14:57;2.47;;;2.22;;
19225;SDS011;9747;48.536;12.522;2024-03-22T08:17:23;2.85;;;2.40;;
19225;SDS011;9747;48.536;12.522;2024-03-22T08:19:50;2.50;;;2.30;;
19225;SDS011;9747;48.536;12.522;2024-03-22T08:22:17;2.85;;;2.45;;
19225;SDS011;9747;48.536;12.522;2024-03-22T08:24:44;2.80;;;2.58;;
19225;SDS011;9747;48.536;12.522;2024-03-22T08:27:12;3.70;;;2.38;;
19225;SDS011;9747;48.536;12.522;2024-03-22T08:29:40;2.45;;;2.13;;
19225;SDS011;9747;48.536;12.522;2024-03-22T08:32:06;2.38;;;2.22;;
19225;SDS011;9747;48.536;12.522;2024-03-22T08:34:34;2.85;;;2.63;;
19225;SDS011;9747;48.536;12.522;2024-03-22T08:37:00;2.50;;;2.30;;
19225;SDS011;9747;48.536;12.522;2024-03-22T08:39:29;2.20;;;2.00;;
19225;SDS011;9747;48.536;12.522;2024-03-22T08:41:55;2.58;;;2.40;;
19225;SDS011;9747;48.536;12.522;2024-03-22T08:44:25;3.58;;;2.20;;
19225;SDS011;9747;48.536;12.522;2024-03-22T08:46:52;2.20;;;2.10;;
19225;SDS011;9747;48.536;12.522;2024-03-22T08:49:19;2.35;;;2.10;;
19225;SDS011;9747;48.536;12.522;2024-03-22T08:51:46;2.33;;;2.10;;
19225;SDS011;9747;48.536;12.522;2024-03-22T08:54:13;2.00;;;1.90;;
19225;SDS011;9747;48.536;12.522;2024-03-22T08:56:40;2.70;;;2.30;;
19225;SDS011;9747;48.536;12.522;2024-03-22T08:59:07;2.10;;;2.00;;
19225;SDS011;9747;48.536;12.522;2024-03-22T09:01:37;2.25;;;2.10;;
19225;SDS011;9747;48.536;12.522;2024-03-22T09:04:04;2.10;;;2.00;;
19225;SDS011;9747;48.536;12.522;2024-03-22T09:06:31;2.10;;;1.90;;
19225;SDS011;9747;48.536;12.522;2024-03-22T09:08:58;2.38;;;2.17;;
19225;SDS011;9747;48.536;12.522;2024-03-22T09:11:25;3.58;;;1.90;;
19225;SDS011;9747;48.536;12.522;2024-03-22T09:13:52;2.38;;;2.17;;
19225;SDS011;9747;48.536;12.522;2024-03-22T09:16:19;2.30;;;2.10;;
19225;SDS011;9747;48.536;12.522;2024-03-22T09:18:48;2.10;;;2.00;;
19225;SDS011;9747;48.536;12.522;2024-03-22T09:21:14;2.28;;;2.17;;
19225;SDS011;9747;48.536;12.522;2024-03-22T09:23:42;2.30;;;2.10;;
19225;SDS011;9747;48.536;12.522;2024-03-22T09:26:08;2.20;;;2.10;;
19225;SDS011;9747;48.536;12.522;2024-03-22T09:28:36;2.28;;;2.15;;
19225;SDS011;9747;48.536;12.522;2024-03-22T09:31:06;2.22;;;2.08;;
19225;SDS011;9747;48.536;12.522;2024-03-22T09:33:33;2.40;;;2.30;;
19225;SDS011;9747;48.536;12.522;2024-03-22T09:36:02;2.42;;;2.22;;
19225;SDS011;9747;48.536;12.522;2024-03-22T09:38:30;2.25;;;2.00;;
19225;SDS011;9747;48.536;12.522;2024-03-22T09:40:57;2.00;;;1.90;;
19225;SDS011;9747;48.536;12.522;2024-03-22T09:43:24;2.30;;;2.10;;
19225;SDS011;9747;48.536;12.522;2024-03-22T09:45:53;2.38;;;2.20;;
19225;SDS011;9747;48.536;12.522;2024-03-22T09:48:21;2.15;;;2.05;;
19225;SDS011;9747;48.536;12.522;2024-03-22T09:50:49;1.98;;;1.88;;
19225;SDS011;9747;48.536;12.522;2024-03-22T09:53:19;2.28;;;2.13;;
19225;SDS011;9747;48.536;12.522;2024-03-22T09:55:46;2.33;;;1.92;;
19225;SDS011;9747;48.536;12.522;2024-03-22T09:58:17;1.92;;;1.83;;
19225;SDS011;9747;48.536;12.522;2024-03-22T10:00:43;2.15;;;2.00;;
19225;SDS011;9747;48.536;12.522;2024-03-22T10:03:11;2.25;;;2.05;;
19225;SDS011;9747;48.536;12.522;2024-03-22T10:05:37;3.20;;;2.20;;
19225;SDS011;9747;48.536;12.522;2024-03-22T10:08:05;2.25;;;2.10;;
19225;SDS011;9747;48.536;12.522;2024-03-22T10:10:33;2.28;;;2.08;;
19225;SDS011;9747;48.536;12.522;2024-03-22T10:13:01;2.35;;;2.15;;
19225;SDS011;9747;48.536;12.522;2024-03-22T10:15:30;2.30;;;2.15;;
19225;SDS011;9747;48.536;12.522;2024-03-22T10:17:57;2.35;;;2.15;;
19225;SDS011;9747;48.536;12.522;2024-03-22T10:20:24;2.08;;;1.90;;
19225;SDS011;9747;48.536;12.522;2024-03-22T10:22:55;2.95;;;2.03;;
19225;SDS011;9747;48.536;12.522;2024-03-22T10:25:23;1.80;;;1.70;;
19225;SDS011;9747;48.536;12.522;2024-03-22T10:27:53;2.00;;;1.90;;
19225;SDS011;9747;48.536;12.522;2024-03-22T10:30:20;2.00;;;1.90;;
19225;SDS011;9747;48.536;12.522;2024-03-22T10:32:49;2.10;;;2.00;;
19225;SDS011;9747;48.536;12.522;2024-03-22T10:35:16;2.10;;;1.90;;
19225;SDS011;9747;48.536;12.522;2024-03-22T10:37:44;2.13;;;1.95;;
19225;SDS011;9747;48.536;12.522;2024-03-22T10:40:11;1.83;;;1.73;;
19225;SDS011;9747;48.536;12.522;2024-03-22T10:42:40;1.73;;;1.63;;
19225;SDS011;9747;48.536;12.522;2024-03-22T10:45:09;1.92;;;1.83;;
19225;SDS011;9747;48.536;12.522;2024-03-22T10:47:38;2.05;;;1.95;;
19225;SDS011;9747;48.536;12.522;2024-03-22T10:50:06;1.95;;;1.83;;
19225;SDS011;9747;48.536;12.522;2024-03-22T10:52:36;1.75;;;1.70;;
19225;SDS011;9747;48.536;12.522;2024-03-22T10:55:05;1.60;;;1.58;;
19225;SDS011;9747;48.536;12.522;2024-03-22T10:57:37;1.70;;;1.60;;
19225;SDS011;9747;48.536;12.522;2024-03-22T11:00:04;1.58;;;1.58;;
19225;SDS011;9747;48.536;12.522;2024-03-22T11:02:37;2.83;;;1.80;;
19225;SDS011;9747;48.536;12.522;2024-03-22T11:05:04;1.90;;;1.80;;
19225;SDS011;9747;48.536;12.522;2024-03-22T11:07:32;1.70;;;1.60;;
19225;SDS011;9747;48.536;12.522;2024-03-22T11:10:00;2.38;;;2.00;;
19225;SDS011;9747;48.536;12.522;2024-03-22T11:12:31;2.17;;;1.50;;
19225;SDS011;9747;48.536;12.522;2024-03-22T11:14:58;1.88;;;1.77;;
19225;SDS011;9747;48.536;12.522;2024-03-22T11:17:27;1.90;;;1.80;;
19225;SDS011;9747;48.536;12.522;2024-03-22T11:19:56;1.80;;;1.70;;
19225;SDS011;9747;48.536;12.522;2024-03-22T11:22:25;2.00;;;1.90;;
19225;SDS011;9747;48.536;12.522;2024-03-22T11:24:51;1.92;;;1.83;;
19225;SDS011;9747;48.536;12.522;2024-03-22T11:27:19;1.85;;;1.75;;
19225;SDS011;9747;48.536;12.522;2024-03-22T11:29:46;1.85;;;1.75;;
19225;SDS011;9747;48.536;12.522;2024-03-22T11:32:16;2.38;;;1.80;;
19225;SDS011;9747;48.536;12.522;2024-03-22T11:34:44;1.95;;;1.83;;
19225;SDS011;9747;48.536;12.522;2024-03-22T11:37:12;1.92;;;1.83;;
19225;SDS011;9747;48.536;12.522;2024-03-22T11:39:38;1.92;;;1.80;;
19225;SDS011;9747;48.536;12.522;2024-03-22T11:42:06;2.83;;;2.22;;
19225;SDS011;9747;48.536;12.522;2024-03-22T11:44:34;2.78;;;2.58;;
19225;SDS011;9747;48.536;12.522;2024-03-22T11:47:04;4.13;;;2.88;;
19225;SDS011;9747;48.536;12.522;2024-03-22T11:49:31;4.45;;;2.95;;
19225;SDS011;9747;48.536;12.522;2024-03-22T11:51:59;5.00;;;3.10;;
19225;SDS011;9747;48.536;12.522;2024-03-22T11:54:27;6.50;;;2.80;;
19225;SDS011;9747;48.536;12.522;2024-03-22T11:56:55;4.03;;;3.13;;
19225;SDS011;9747;48.536;12.522;2024-03-22T11:59:23;4.07;;;2.60;;
19225;SDS011;9747;48.536;12.522;2024-03-22T12:01:49;5.80;;;3.00;;
19225;SDS011;9747;48.536;12.522;2024-03-22T12:04:16;5.20;;;2.78;;
19225;SDS011;9747;48.536;12.522;2024-03-22T12:06:44;4.05;;;2.60;;
19225;SDS011;9747;48.536;12.522;2024-03-22T12:09:13;2.83;;;2.33;;
19225;SDS011;9747;48.536;12.522;2024-03-22T12:11:40;3.72;;;2.60;;
19225;SDS011;9747;48.536;12.522;2024-03-22T12:14:06;3.08;;;2.60;;
19225;SDS011;9747;48.536;12.522;2024-03-22T12:16:34;4.45;;;2.80;;
19225;SDS011;9747;48.536;12.522;2024-03-22T12:19:01;3.38;;;2.45;;
19225;SDS011;9747;48.536;12.522;2024-03-22T12:21:29;2.70;;;2.40;;
19225;SDS011;9747;48.536;12.522;2024-03-22T12:23:55;3.58;;;2.17;;
19225;SDS011;9747;48.536;12.522;2024-03-22T12:26:24;4.22;;;2.60;;
19225;SDS011;9747;48.536;12.522;2024-03-22T12:28:51;3.15;;;2.50;;
19225;SDS011;9747;48.536;12.522;2024-03-22T12:31:18;2.70;;;2.50;;
19225;SDS011;9747;48.536;12.522;2024-03-22T12:33:45;3.00;;;2.33;;
19225;SDS011;9747;48.536;12.522;2024-03-22T12:36:12;3.05;;;2.47;;
19225;SDS011;9747;48.536;12.522;2024-03-22T12:38:39;3.05;;;2.17;;
19225;SDS011;9747;48.536;12.522;2024-03-22T12:41:06;2.25;;;2.05;;
19225;SDS011;9747;48.536;12.522;2024-03-22T12:43:34;2.88;;;2.50;;
19225;SDS011;9747;48.536;12.522;2024-03-22T12:46:02;3.17;;;2.30;;
19225;SDS011;9747;48.536;12.522;2024-03-22T12:48:28;2.50;;;2.30;;
19225;SDS011;9747;48.536;12.522;2024-03-22T12:50:56;2.47;;;2.08;;
19225;SDS011;9747;48.536;12.522;2024-03-22T12:53:22;2.15;;;2.03;;
19225;SDS011;9747;48.536;12.522;2024-03-22T12:55:50;4.82;;;2.30;;
19225;SDS011;9747;48.536;12.522;2024-03-22T12:58:16;2.60;;;2.20;;
19225;SDS011;9747;48.536;12.522;2024-03-22T13:00:45;2.80;;;2.17;;
19225;SDS011;9747;48.536;12.522;2024-03-22T13:03:12;2.80;;;2.22;;
19225;SDS011;9747;48.536;12.522;2024-03-22T13:05:41;2.90;;;2.50;;
19225;SDS011;9747;48.536;12.522;2024-03-22T13:08:08;2.45;;;2.22;;
19225;SDS011;9747;48.536;12.522;2024-03-22T13:10:36;1.88;;;1.77;;
19225;SDS011;9747;48.536;12.522;2024-03-22T13:13:04;3.85;;;2.10;;
19225;SDS011;9747;48.536;12.522;2024-03-22T13:15:32;2.42;;;1.85;;
19225;SDS011;9747;48.536;12.522;2024-03-22T13:18:01;2.35;;;1.95;;
19225;SDS011;9747;48.536;12.522;2024-03-22T13:20:29;2.33;;;2.00;;
19225;SDS011;9747;48.536;12.522;2024-03-22T13:22:56;2.13;;;2.03;;
19225;SDS011;9747;48.536;12.522;2024-03-22T13:25:24;2.20;;;1.95;;
19225;SDS011;9747;48.536;12.522;2024-03-22T13:27:51;1.98;;;1.77;;
19225;SDS011;9747;48.536;12.522;2024-03-22T13:30:19;2.38;;;2.03;;
19225;SDS011;9747;48.536;12.522;2024-03-22T13:32:45;2.90;;;1.80;;
19225;SDS011;9747;48.536;12.522;2024-03-22T13:35:14;2.40;;;2.20;;
19225;SDS011;9747;48.536;12.522;2024-03-22T13:37:41;2.08;;;1.90;;
19225;SDS011;9747;48.536;12.522;2024-03-22T13:40:09;2.08;;;1.90;;
19225;SDS011;9747;48.536;12.522;2024-03-22T13:42:36;2.05;;;1.80;;
19225;SDS011;9747;48.536;12.522;2024-03-22T13:45:04;2.40;;;2.10;;
19225;SDS011;9747;48.536;12.522;2024-03-22T13:47:31;3.67;;;1.92;;
19225;SDS011;9747;48.536;12.522;2024-03-22T13:49:59;2.97;;;1.92;;
19225;SDS011;9747;48.536;12.522;2024-03-22T13:52:28;2.60;;;2.00;;
19225;SDS011;9747;48.536;12.522;2024-03-22T13:54:55;2.28;;;1.90;;
19225;SDS011;9747;48.536;12.522;2024-03-22T13:57:22;4.15;;;2.00;;
19225;SDS011;9747;48.536;12.522;2024-03-22T13:59:51;2.00;;;1.83;;
19225;SDS011;9747;48.536;12.522;2024-03-22T14:02:18;3.22;;;1.95;;
19225;SDS011;9747;48.536;12.522;2024-03-22T14:04:46;3.17;;;1.90;;
19225;SDS011;9747;48.536;12.522;2024-03-22T14:07:12;1.80;;;1.70;;
19225;SDS011;9747;48.536;12.522;2024-03-22T14:09:41;1.90;;;1.80;;
19225;SDS011;9747;48.536;12.522;2024-03-22T14:12:08;2.60;;;1.90;;
19225;SDS011;9747;48.536;12.522;2024-03-22T14:14:36;2.20;;;1.98;;
19225;SDS011;9747;48.536;12.522;2024-03-22T14:17:03;1.90;;;1.80;;
19225;SDS011;9747;48.536;12.522;2024-03-22T14:19:30;2.28;;;2.05;;
19225;SDS011;9747;48.536;12.522;2024-03-22T14:21:56;2.95;;;1.95;;
19225;SDS011;9747;48.536;12.522;2024-03-22T14:24:24;2.38;;;1.90;;
19225;SDS011;9747;48.536;12.522;2024-03-22T14:26:52;2.53;;;1.80;;
19225;SDS011;9747;48.536;12.522;2024-03-22T14:29:20;4.60;;;2.13;;
19225;SDS011;9747;48.536;12.522;2024-03-22T14:31:46;5.18;;;2.45;;
19225;SDS011;9747;48.536;12.522;2024-03-22T14:34:14;4.47;;;2.10;;
19225;SDS011;9747;48.536;12.522;2024-03-22T14:36:40;5.00;;;2.20;;
19225;SDS011;9747;48.536;12.522;2024-03-22T14:39:07;2.58;;;1.80;;
19225;SDS011;9747;48.536;12.522;2024-03-22T14:41:36;6.00;;;2.28;;
19225;SDS011;9747;48.536;12.522;2024-03-22T14:44:05;3.35;;;2.00;;
19225;SDS011;9747;48.536;12.522;2024-03-22T14:46:31;5.30;;;2.25;;
19225;SDS011;9747;48.536;12.522;2024-03-22T14:48:59;4.68;;;2.20;;